KFSD/FSD METAR and TAF weather

Enter ICAO airport designator
Station Type Date Time Source
KFSD METAR 2021/05/14 03:56 UTC NOAA

KFSD 140356Z 16014G24KT 10SM BKN080 BKN170 16/M01 A3013 RMK AO2 SLP202 T01611006


Station Type Date Time Source
KFSD Decoded METAR 2021/05/14 03:56 UTC NOAA

SIOUX FALLS FOSS FIELD, SD, United States (KFSD) 43-35N 096-45W 434M
May 13, 2021 - 11:56 PM EDT / 2021.05.14 0356 UTC
Wind: from the SSE (160 degrees) at 16 MPH (14 KT) gusting to 28 MPH (24 KT):0
Visibility: 10 mile(s):0
Sky conditions: mostly cloudy
Temperature: 61.0 F (16.1 C)
Dew Point: 30.9 F (-0.6 C)
Relative Humidity: 31%
Pressure (altimeter): 30.13 in. Hg (1020 hPa)
ob: KFSD 140356Z 16014G24KT 10SM BKN080 BKN170 16/M01 A3013 RMK AO2 SLP202 T01611006
cycle: 4

Station Type Date Time Source
KFSD TAF 2021/05/13 22:42 UTC NOAA

TAF
AMD KFSD 132138Z 1322/1418 19015G24KT P6SM BKN070
FM140000 17014G22KT P6SM BKN050
FM140600 17010G17KT P6SM -SHRA BKN060
FM141200 15008KT P6SM BKN019

Example: see airport list